Skip Navigation LinksHome page > Weather > Current weather Skip Navigation Links

Current Weather

Lawrence J Timmerman, Milwaukee

For information only: do not use for flight planning or navigation.
Latest weather
Observation time Saturday, October 19, 2019 4:55 AM CDT
Local time Saturday, October 19, 2019 5:20 AM CDT
Flight conditions Visual Meteorological Conditions
Winds
Wind direction South (170°)
Wind speed 6 mph
Visibility 10 mi.
Sky condition
Ceiling unlimited
Sky clear
Temperature 45°F
Dewpoint 37°F
Altimeter 29.86 in.Hg
Derived measurements
Relative humidity 76%
Wind chill 41°F
Density altitude -35 ft.
Remarks
Fully automated report.
Automated weather observing station with precipitation discriminator.
METAR KMWC 190955Z AUTO 17005KT 10SM CLR 07/03 A2986 RMK AO2

Settings

Location code

InnerDrive.Weather 4.0.6770.0 Release CLR 4.0.30319.42000
Copyright ©2018 Inner Drive Technology. All rights reserved. Portions Copyright ©1986-2018 David Braverman.

Find weather

Site navigation


Skip Navigation Links

Place info

Page info

PayPal - The safer, easier way to pay online!

Return home.

Copyright ©2019 Inner Drive Technology. Purveyors of fine, hand-crafted computer software. Page printed 2019-10-19T10:20:11 UTC.